Time;durP1;ratioP1;P1;durP2;ratioP2;P2;SDS_P1;SDS_P2;PMS_P1;PMS_P2;Temp;Humidity;BMP_temperature;BMP_pressure;BME280_temperature;BME280_humidity;BME280_pressure;Samples;Min_cycle;Max_cycle;Signal;HPM_P1;HPM_P2
2023/10/27 00:01:29;;;;;;;3.42;1.90;;;;;;;14.40;100.00;96943.56;4469727;32;20092;-76
2023/10/27 00:03:56;;;;;;;3.08;2.08;;;;;;;14.42;100.00;96938.06;4470082;32;20119;-76
2023/10/27 00:06:24;;;;;;;2.45;1.80;;;;;;;14.44;100.00;96943.94;4469849;32;20578;-76
2023/10/27 00:08:51;;;;;;;5.57;2.10;;;;;;;14.46;100.00;96941.91;4469801;32;20158;-76
2023/10/27 00:11:18;;;;;;;7.95;1.60;;;;;;;14.50;100.00;96936.03;4469796;32;20155;-76
2023/10/27 00:13:46;;;;;;;6.95;1.92;;;;;;;14.51;100.00;96932.38;4469764;32;20115;-76
2023/10/27 00:16:14;;;;;;;7.82;1.60;;;;;;;14.51;100.00;96937.63;4474530;32;20100;-76
2023/10/27 00:18:42;;;;;;;7.37;1.77;;;;;;;14.50;100.00;96930.75;4485485;31;20084;-76
2023/10/27 00:21:09;;;;;;;5.47;1.75;;;;;;;14.49;100.00;96930.97;4485274;32;20156;-76
2023/10/27 00:23:36;;;;;;;4.60;1.70;;;;;;;14.52;100.00;96920.00;4485568;31;20406;-76
2023/10/27 00:26:05;;;;;;;4.10;1.70;;;;;;;14.52;100.00;96926.09;4485559;31;20119;-76
2023/10/27 00:28:32;;;;;;;8.27;1.70;;;;;;;14.50;100.00;96924.66;4475960;31;20092;-76
2023/10/27 00:31:01;;;;;;;8.27;1.77;;;;;;;14.51;100.00;96924.47;4469334;32;20100;-76
2023/10/27 00:33:28;;;;;;;5.22;1.52;;;;;;;14.53;100.00;96921.63;4469618;32;20096;-76
2023/10/27 00:35:57;;;;;;;3.15;1.45;;;;;;;14.57;100.00;96917.56;4469351;32;20554;-76
2023/10/27 00:38:24;;;;;;;3.47;1.70;;;;;;;14.56;100.00;96915.94;4469978;32;20161;-76
2023/10/27 00:40:51;;;;;;;6.78;1.62;;;;;;;14.56;100.00;96915.94;4469408;32;20465;-76
2023/10/27 00:43:18;;;;;;;4.62;1.60;;;;;;;14.60;100.00;96916.34;4469689;32;20084;-76
2023/10/27 00:45:49;;;;;;;4.90;1.50;;;;;;;14.65;100.00;96922.59;4469427;32;20180;-76
2023/10/27 00:48:18;;;;;;;4.97;1.62;;;;;;;14.70;100.00;96921.97;4469534;32;20106;-76
2023/10/27 00:50:45;;;;;;;3.30;1.80;;;;;;;14.81;100.00;96917.91;4468123;32;20100;-76
2023/10/27 00:53:13;;;;;;;4.15;1.40;;;;;;;14.79;100.00;96915.47;4468144;32;20105;-76
2023/10/27 00:55:42;;;;;;;3.75;1.50;;;;;;;14.83;100.00;96913.22;4468065;32;20162;-76
2023/10/27 00:58:09;;;;;;;2.60;1.15;;;;;;;14.87;100.00;96912.59;4469446;32;20115;-76
2023/10/27 01:00:38;;;;;;;3.55;1.55;;;;;;;14.88;100.00;96926.56;4467885;32;20096;-76
2023/10/27 01:03:05;;;;;;;6.07;1.50;;;;;;;14.92;100.00;96916.44;4468184;32;20109;-76
2023/10/27 01:05:33;;;;;;;3.35;1.40;;;;;;;14.89;100.00;96917.66;4469475;32;20081;-76
2023/10/27 01:08:00;;;;;;;5.55;1.65;;;;;;;14.96;100.00;96909.69;4469593;32;20123;-76
2023/10/27 01:10:28;;;;;;;3.35;1.08;;;;;;;14.93;100.00;96903.03;4467935;32;20592;-76
2023/10/27 01:12:55;;;;;;;3.78;1.15;;;;;;;14.94;100.00;96906.47;4469276;32;20097;-76
2023/10/27 01:15:23;;;;;;;6.22;1.65;;;;;;;14.98;100.00;96902.41;4469615;32;20101;-76
2023/10/27 01:17:51;;;;;;;2.90;1.27;;;;;;;14.97;100.00;96904.22;4484742;32;20156;-76
2023/10/27 01:20:18;;;;;;;5.65;1.50;;;;;;;15.05;100.00;96900.53;4484792;32;20568;-76
2023/10/27 01:22:48;;;;;;;3.00;1.20;;;;;;;15.05;100.00;96898.72;4485074;32;20092;-76
2023/10/27 01:25:16;;;;;;;6.12;1.67;;;;;;;15.00;100.00;96895.88;4484991;31;20092;-76
2023/10/27 01:27:45;;;;;;;2.62;1.27;;;;;;;15.05;100.00;96890.81;4480751;31;20100;-76
2023/10/27 01:30:12;;;;;;;3.62;1.40;;;;;;;15.05;100.00;96890.00;4469208;32;20097;-76
2023/10/27 01:32:55;;;;;;;4.57;1.40;;;;;;;15.01;100.00;96886.97;4469292;32;20115;-76
2023/10/27 01:35:23;;;;;;;9.98;1.30;;;;;;;14.97;100.00;96883.13;4468951;32;20088;-76
2023/10/27 01:37:51;;;;;;;2.05;0.98;;;;;;;14.94;100.00;96880.09;4469253;32;20380;-76
2023/10/27 01:40:18;;;;;;;3.75;1.20;;;;;;;14.97;100.00;96874.41;4469287;32;20121;-76
2023/10/27 01:42:46;;;;;;;4.28;1.30;;;;;;;15.08;100.00;96877.19;4468999;32;20490;-76
2023/10/27 01:45:14;;;;;;;1.65;1.02;;;;;;;15.09;100.00;96875.34;4469237;32;20084;-76
2023/10/27 01:47:41;;;;;;;3.00;1.60;;;;;;;15.07;100.00;96867.66;4469120;32;20084;-76
2023/10/27 01:50:09;;;;;;;4.40;1.30;;;;;;;15.08;100.00;96855.28;4469140;32;20093;-76
2023/10/27 01:52:36;;;;;;;4.70;1.67;;;;;;;15.08;100.00;96857.94;4469003;32;20104;-76
2023/10/27 01:55:07;;;;;;;3.15;1.50;;;;;;;14.99;100.00;96849.47;4469085;32;20089;-76
2023/10/27 01:57:34;;;;;;;2.70;1.40;;;;;;;15.01;100.00;96850.03;4468972;32;20104;-76
2023/10/27 02:00:03;;;;;;;4.53;1.60;;;;;;;14.98;100.00;96855.75;4469109;32;20418;-76
2023/10/27 02:02:38;;;;;;;2.92;1.10;;;;;;;15.00;100.00;96858.97;4468989;32;20163;-76
2023/10/27 02:05:07;;;;;;;4.65;1.05;;;;;;;14.98;100.00;96849.66;4468950;32;20104;-76
2023/10/27 02:07:35;;;;;;;4.80;1.33;;;;;;;15.01;100.00;96842.12;4468900;32;20603;-76
2023/10/27 02:10:03;;;;;;;2.72;1.30;;;;;;;14.99;100.00;96844.19;4467787;32;20525;-76
2023/10/27 02:12:32;;;;;;;3.03;1.20;;;;;;;15.04;100.00;96839.06;4467917;32;20473;-76
2023/10/27 02:14:59;;;;;;;3.53;1.25;;;;;;;15.08;100.00;96836.84;4469050;32;20148;-76
2023/10/27 02:17:29;;;;;;;4.82;0.95;;;;;;;15.04;100.00;96839.06;4481656;32;20100;-76
2023/10/27 02:19:56;;;;;;;8.20;1.20;;;;;;;15.02;100.00;96827.12;4484546;31;20415;-76
2023/10/27 02:22:23;;;;;;;2.92;1.00;;;;;;;14.90;100.00;96833.06;4484334;32;20260;-76
2023/10/27 02:24:51;;;;;;;1.85;0.90;;;;;;;14.97;100.00;96833.03;4484752;31;20100;-76
2023/10/27 02:27:18;;;;;;;2.10;1.02;;;;;;;14.96;100.00;96830.59;4483310;31;20140;-76
2023/10/27 02:29:50;;;;;;;3.00;1.10;;;;;;;14.98;100.00;96820.66;4468843;32;20092;-75
2023/10/27 02:32:18;;;;;;;3.53;1.45;;;;;;;15.03;100.00;96820.81;4468614;32;20088;-75
2023/10/27 02:34:45;;;;;;;4.93;1.08;;;;;;;15.01;100.00;96820.25;4468356;32;20107;-75
2023/10/27 02:37:12;;;;;;;3.72;0.98;;;;;;;15.00;100.00;96819.41;4468612;32;20533;-76
2023/10/27 02:39:39;;;;;;;4.15;1.05;;;;;;;14.99;100.00;96820.44;4468883;32;20092;-76
2023/10/27 02:42:08;;;;;;;2.40;0.77;;;;;;;14.88;100.00;96814.03;4468332;32;20087;-76
2023/10/27 02:44:37;;;;;;;0.90;0.70;;;;;;;14.94;100.00;96812.34;4468519;32;20123;-76
2023/10/27 02:47:05;;;;;;;5.03;0.98;;;;;;;15.00;100.00;96808.88;4468623;32;20154;-76
2023/10/27 02:49:32;;;;;;;2.80;1.00;;;;;;;14.99;100.00;96804.62;4468511;32;20096;-76
2023/10/27 02:51:59;;;;;;;2.25;0.90;;;;;;;14.92;100.00;96803.06;4468482;32;20593;-76
2023/10/27 02:54:27;;;;;;;3.60;1.00;;;;;;;14.97;100.00;96798.75;4468469;32;20109;-76
2023/10/27 02:56:54;;;;;;;3.62;0.70;;;;;;;14.92;100.00;96803.84;4468306;32;20157;-76
2023/10/27 02:59:22;;;;;;;5.55;0.90;;;;;;;14.95;100.00;96797.38;4468240;32;20142;-76
2023/10/27 03:01:50;;;;;;;1.30;0.80;;;;;;;14.94;100.00;96791.25;4468578;32;20101;-76
2023/10/27 03:04:19;;;;;;;1.55;0.98;;;;;;;14.97;100.00;96787.41;4468457;32;20441;-76
2023/10/27 03:06:46;;;;;;;2.30;0.82;;;;;;;14.98;100.00;96791.66;4468453;32;20121;-75
2023/10/27 03:09:14;;;;;;;5.62;0.80;;;;;;;14.94;100.00;96790.47;4468024;32;20421;-76
2023/10/27 03:11:42;;;;;;;2.15;0.77;;;;;;;14.96;100.00;96781.31;4468142;32;20175;-76
2023/10/27 03:14:11;;;;;;;0.75;0.75;;;;;;;14.99;100.00;96770.34;4467886;32;20150;-76
2023/10/27 03:16:39;;;;;;;3.22;1.12;;;;;;;14.97;100.00;96764.47;4475693;32;20096;-76
2023/10/27 03:19:09;;;;;;;3.03;0.70;;;;;;;14.95;100.00;96757.81;4483591;31;20100;-76
2023/10/27 03:21:37;;;;;;;23.27;1.30;;;;;;;15.05;100.00;96756.31;4483756;31;20088;-76
2023/10/27 03:24:05;;;;;;;137.18;6.20;;;;;;;15.08;100.00;96750.59;4483422;31;20119;-75
2023/10/27 03:26:32;;;;;;;256.00;11.27;;;;;;;14.97;100.00;96743.38;4485627;31;20101;-76
2023/10/27 03:28:59;;;;;;;179.57;10.60;;;;;;;14.92;100.00;96737.94;4473459;31;20131;-76
2023/10/27 03:31:26;;;;;;;261.08;13.40;;;;;;;14.80;100.00;96731.75;4470308;32;20097;-75
2023/10/27 03:33:54;;;;;;;250.32;11.25;;;;;;;14.85;100.00;96734.53;4470140;32;20115;-76
2023/10/27 03:36:21;;;;;;;368.55;15.63;;;;;;;14.82;100.00;96734.97;4470131;32;20572;-76
2023/10/27 03:38:49;;;;;;;224.10;8.77;;;;;;;14.76;100.00;96725.28;4469848;32;20515;-76
2023/10/27 03:41:19;;;;;;;337.15;12.68;;;;;;;14.79;100.00;96722.22;4470246;32;20085;-76
2023/10/27 03:43:47;;;;;;;135.48;4.30;;;;;;;14.76;100.00;96714.75;4469751;32;20414;-76
2023/10/27 03:46:14;;;;;;;186.02;9.15;;;;;;;14.78;100.00;96723.28;4469904;32;20117;-76
2023/10/27 03:48:44;;;;;;;154.68;6.30;;;;;;;14.76;100.00;96710.31;4469798;32;20097;-76
2023/10/27 03:51:12;;;;;;;253.52;10.05;;;;;;;14.73;100.00;96702.81;4469959;32;20092;-76
2023/10/27 03:53:39;;;;;;;145.65;7.15;;;;;;;14.72;100.00;96709.13;4469640;32;20093;-75
2023/10/27 03:56:06;;;;;;;45.35;3.53;;;;;;;14.67;100.00;96701.84;4469753;32;20140;-75
2023/10/27 03:58:34;;;;;;;129.63;5.80;;;;;;;14.72;100.00;96691.47;4469897;32;20104;-75
2023/10/27 04:01:15;;;;;;;53.38;3.10;;;;;;;14.67;100.00;96683.41;4470005;32;20084;-75
2023/10/27 04:03:43;;;;;;;125.93;5.18;;;;;;;14.61;100.00;96678.16;4469719;32;20093;-76
2023/10/27 04:06:11;;;;;;;196.68;9.50;;;;;;;14.65;100.00;96666.97;4469824;32;20455;-77
2023/10/27 04:08:39;;;;;;;113.57;6.00;;;;;;;14.60;100.00;96668.63;4470070;32;20124;-76
2023/10/27 04:11:16;;;;;;;25.35;2.53;;;;;;;14.70;100.00;96661.88;4470028;32;20466;-78
2023/10/27 04:14:04;;;;;;;3.95;1.77;;;;;;;14.76;100.00;96662.03;4469726;32;20093;-76
2023/10/27 04:16:32;;;;;;;6.82;2.67;;;;;;;14.74;100.00;96638.53;4476726;32;20130;-76
2023/10/27 04:19:00;;;;;;;3.67;2.75;;;;;;;14.84;100.00;96638.06;4485410;31;20096;-75
2023/10/27 04:21:28;;;;;;;8.63;2.95;;;;;;;14.62;100.00;96633.16;4480988;31;20539;-75
2023/10/27 04:23:59;;;;;;;59.10;4.93;;;;;;;14.48;100.00;96629.00;4476069;32;20614;-75
2023/10/27 04:26:27;;;;;;;62.20;4.72;;;;;;;14.33;100.00;96637.22;4484421;32;20084;-75
2023/10/27 04:28:54;;;;;;;12.20;4.18;;;;;;;14.45;100.00;96624.16;4479306;32;20108;-75
2023/10/27 04:31:21;;;;;;;3.83;2.00;;;;;;;14.33;100.00;96613.50;4485323;31;20112;-75
2023/10/27 04:33:49;;;;;;;6.20;2.60;;;;;;;14.41;100.00;96607.16;4485299;31;20096;-75
2023/10/27 04:36:16;;;;;;;2.50;2.12;;;;;;;14.18;100.00;96613.81;4483712;31;20106;-75
2023/10/27 04:38:44;;;;;;;3.83;2.15;;;;;;;14.27;100.00;96596.72;4484916;32;20119;-76
2023/10/27 04:41:11;;;;;;;28.52;4.22;;;;;;;14.46;100.00;96588.88;4484702;32;20127;-76
2023/10/27 04:43:38;;;;;;;10.45;3.22;;;;;;;14.27;100.00;96586.19;4479358;32;20131;-76
2023/10/27 04:46:07;;;;;;;10.73;3.20;;;;;;;14.27;100.00;96575.66;4477868;32;20132;-75
2023/10/27 04:48:38;;;;;;;13.13;3.42;;;;;;;14.35;100.00;96567.50;4469560;32;20096;-75
2023/10/27 04:51:05;;;;;;;48.40;5.00;;;;;;;14.40;100.00;96568.66;4469389;32;20157;-76
2023/10/27 04:53:33;;;;;;;148.70;8.90;;;;;;;14.20;100.00;96564.34;4473050;32;20576;-76
2023/10/27 04:56:00;;;;;;;205.93;11.07;;;;;;;14.07;100.00;96554.75;4482673;32;20123;-76
2023/10/27 04:58:27;;;;;;;50.38;5.62;;;;;;;14.10;100.00;96538.50;4480113;31;20140;-76
2023/10/27 05:00:55;;;;;;;72.22;6.72;;;;;;;14.19;100.00;96539.06;4468884;32;20122;-76
2023/10/27 05:03:23;;;;;;;10.68;4.30;;;;;;;14.30;100.00;96545.44;4473756;32;20117;-76
2023/10/27 05:05:52;;;;;;;6.53;4.80;;;;;;;14.42;100.00;96540.28;4475745;32;20176;-76
2023/10/27 05:08:20;;;;;;;57.42;6.45;;;;;;;14.29;100.00;96536.75;4470234;32;20120;-76
2023/10/27 05:10:48;;;;;;;7.45;4.87;;;;;;;14.24;100.00;96539.22;4469802;32;20112;-76
2023/10/27 05:13:15;;;;;;;37.40;5.32;;;;;;;14.45;100.00;96532.75;4472139;32;20127;-76
2023/10/27 05:15:52;;;;;;;6.30;3.92;;;;;;;14.50;100.00;96529.47;4480369;31;20127;-77
2023/10/27 05:18:19;;;;;;;26.02;4.95;;;;;;;14.62;100.00;96525.13;4473912;32;20116;-76
2023/10/27 05:20:48;;;;;;;6.47;3.65;;;;;;;14.64;100.00;96517.81;4475056;31;20517;-76
2023/10/27 05:23:17;;;;;;;77.78;6.15;;;;;;;14.41;100.00;96533.41;4477901;32;20113;-76
2023/10/27 05:25:44;;;;;;;140.68;8.43;;;;;;;14.50;100.00;96522.38;4474451;32;20458;-76
2023/10/27 05:28:11;;;;;;;76.45;5.60;;;;;;;14.47;100.00;96519.34;4473585;32;20101;-76
2023/10/27 05:30:43;;;;;;;29.05;4.22;;;;;;;14.30;100.00;96513.84;4474276;32;20100;-75
2023/10/27 05:33:10;;;;;;;11.12;3.65;;;;;;;14.24;100.00;96504.19;4470088;31;20550;-76
2023/10/27 05:35:37;;;;;;;28.17;4.82;;;;;;;14.20;100.00;96511.69;4474459;31;77970;-76
2023/10/27 05:38:04;;;;;;;36.53;4.75;;;;;;;14.22;100.00;96507.03;4475618;31;20092;-76
2023/10/27 05:40:33;;;;;;;27.10;4.53;;;;;;;14.14;100.00;96502.84;4478485;31;20101;-75
2023/10/27 05:43:02;;;;;;;20.52;3.47;;;;;;;14.22;100.00;96499.12;4469528;32;20123;-76
2023/10/27 05:45:29;;;;;;;25.73;3.70;;;;;;;14.23;100.00;96497.28;4480755;32;20076;-76
2023/10/27 05:47:56;;;;;;;7.62;3.85;;;;;;;14.19;100.00;96494.28;4477073;32;20119;-77
2023/10/27 05:50:25;;;;;;;51.45;4.80;;;;;;;14.13;100.00;96495.16;4480845;31;20134;-78
2023/10/27 05:52:55;;;;;;;161.88;8.43;;;;;;;14.11;100.00;96492.75;4473391;32;20156;-77
2023/10/27 05:55:25;;;;;;;46.45;4.85;;;;;;;14.15;100.00;96487.84;4479867;32;20143;-77
2023/10/27 05:57:53;;;;;;;158.55;9.40;;;;;;;14.25;100.00;96488.16;4472364;32;20092;-77
2023/10/27 06:00:21;;;;;;;15.85;3.80;;;;;;;14.13;100.00;96487.25;4481814;32;20096;-77
2023/10/27 06:02:52;;;;;;;23.95;4.57;;;;;;;14.17;100.00;96475.25;4476371;31;20127;-78
2023/10/27 06:05:26;;;;;;;4.07;3.20;;;;;;;14.07;100.00;96469.69;4473020;32;20971;-76
2023/10/27 06:07:53;;;;;;;15.13;3.97;;;;;;;14.11;100.00;96470.84;4478309;31;20157;-75
2023/10/27 06:10:21;;;;;;;16.77;4.05;;;;;;;14.08;100.00;96460.75;4476785;32;20578;-77
2023/10/27 06:12:48;;;;;;;4.60;3.33;;;;;;;13.99;100.00;96453.16;4472982;32;20101;-76
2023/10/27 06:15:15;;;;;;;13.38;4.32;;;;;;;14.10;100.00;96448.19;4474649;32;20101;-75
2023/10/27 06:17:43;;;;;;;21.12;4.50;;;;;;;14.15;100.00;96440.44;4480588;32;20157;-74
2023/10/27 06:20:10;;;;;;;7.35;3.80;;;;;;;14.16;100.00;96436.81;4470149;32;20108;-74
2023/10/27 06:22:45;;;;;;;7.90;3.80;;;;;;;14.19;100.00;96428.47;4468648;32;20109;-75
2023/10/27 06:25:13;;;;;;;7.25;4.30;;;;;;;14.14;100.00;96438.81;4471502;32;20146;-77
2023/10/27 06:27:40;;;;;;;8.82;5.20;;;;;;;14.02;100.00;96433.50;4469655;32;20159;-75
2023/10/27 06:30:08;;;;;;;9.52;4.57;;;;;;;14.13;100.00;96430.12;4467649;32;20153;-76
2023/10/27 06:32:37;;;;;;;9.50;5.45;;;;;;;14.17;100.00;96428.69;4473412;32;20543;-76
2023/10/27 06:35:06;;;;;;;9.77;5.45;;;;;;;14.17;100.00;96423.41;4470523;31;20097;-77
2023/10/27 06:37:35;;;;;;;21.45;6.50;;;;;;;14.12;100.00;96417.97;4469754;32;20096;-75
2023/10/27 06:40:05;;;;;;;15.30;6.18;;;;;;;14.02;100.00;96418.50;4472309;32;20104;-76
2023/10/27 06:42:34;;;;;;;13.77;6.07;;;;;;;14.07;100.00;96412.56;4467011;32;20542;-77
2023/10/27 06:45:03;;;;;;;11.20;6.60;;;;;;;14.09;100.00;96415.00;4467618;32;20101;-77
2023/10/27 06:47:31;;;;;;;10.60;7.40;;;;;;;14.04;100.00;96425.38;4466569;32;20477;-77
2023/10/27 06:50:01;;;;;;;13.93;6.78;;;;;;;13.99;100.00;96415.50;4468137;32;20866;-77
2023/10/27 06:52:29;;;;;;;9.18;7.20;;;;;;;14.03;100.00;96416.66;4469391;32;20149;-79
2023/10/27 06:54:58;;;;;;;10.93;7.80;;;;;;;13.97;100.00;96407.81;4467656;32;20161;-77
2023/10/27 06:57:26;;;;;;;10.60;7.47;;;;;;;14.02;100.00;96396.63;4468319;32;20111;-77
2023/10/27 06:59:57;;;;;;;9.95;7.15;;;;;;;14.13;100.00;96393.28;4468587;32;20111;-78
2023/10/27 07:02:27;;;;;;;12.27;7.25;;;;;;;14.07;100.00;96391.50;4474423;32;20106;-79
2023/10/27 07:04:59;;;;;;;10.40;6.70;;;;;;;14.03;100.00;96390.31;4469366;32;20113;-79
2023/10/27 07:07:27;;;;;;;13.13;7.40;;;;;;;14.18;100.00;96401.31;4470558;32;20184;-79
2023/10/27 07:09:55;;;;;;;10.93;6.90;;;;;;;14.20;100.00;96395.81;4473157;31;20168;-78
2023/10/27 07:12:23;;;;;;;9.40;6.20;;;;;;;13.99;100.00;96391.81;4470675;32;20101;-82
2023/10/27 07:14:50;;;;;;;12.02;7.28;;;;;;;14.23;100.00;96378.78;4468870;32;20101;-82
2023/10/27 07:17:19;;;;;;;9.52;6.15;;;;;;;14.18;100.00;96379.44;4468557;32;20161;-82
2023/10/27 07:19:47;;;;;;;11.10;6.20;;;;;;;14.16;100.00;96392.03;4471477;32;20520;-81
2023/10/27 07:22:17;;;;;;;10.75;6.43;;;;;;;14.18;100.00;96384.72;4472263;32;20139;-80
2023/10/27 07:24:44;;;;;;;10.68;6.18;;;;;;;14.13;100.00;96374.84;4471912;32;20093;-81
2023/10/27 07:27:14;;;;;;;12.75;5.10;;;;;;;14.29;100.00;96378.72;4474589;32;20124;-81
2023/10/27 07:29:41;;;;;;;6.93;5.03;;;;;;;14.25;100.00;96360.97;4473292;32;20119;-83
2023/10/27 07:32:09;;;;;;;10.07;4.90;;;;;;;14.20;100.00;96354.50;4473502;32;20533;-80
2023/10/27 07:34:36;;;;;;;10.70;5.25;;;;;;;14.25;100.00;96345.97;4476056;31;20122;-77
2023/10/27 07:37:04;;;;;;;7.80;4.85;;;;;;;14.19;100.00;96350.25;4473610;32;20164;-77
2023/10/27 07:39:32;;;;;;;9.45;4.80;;;;;;;14.22;100.00;96345.56;4473847;32;20115;-77
2023/10/27 07:41:59;;;;;;;8.20;4.00;;;;;;;14.31;100.00;96355.59;4474748;32;20590;-78
2023/10/27 07:44:27;;;;;;;9.82;4.05;;;;;;;14.36;100.00;96347.84;4475018;31;20860;-81
2023/10/27 07:46:55;;;;;;;8.38;4.10;;;;;;;14.41;100.00;96344.53;4471608;31;20451;-79
2023/10/27 07:49:23;;;;;;;8.82;4.85;;;;;;;14.46;100.00;96339.44;4476736;32;20092;-79
2023/10/27 07:51:54;;;;;;;10.35;4.40;;;;;;;14.32;100.00;96335.34;4471070;32;20459;-79
2023/10/27 07:54:23;;;;;;;13.45;4.55;;;;;;;14.23;100.00;96328.75;4472549;32;20121;-78
2023/10/27 07:56:50;;;;;;;8.82;5.03;;;;;;;14.15;100.00;96335.91;4468971;32;20116;-80
2023/10/27 07:59:17;;;;;;;7.25;4.22;;;;;;;14.24;100.00;96317.22;4470255;32;20584;-79
2023/10/27 08:01:46;;;;;;;9.40;4.55;;;;;;;14.25;100.00;96322.25;4470774;32;20097;-82
2023/10/27 08:04:13;;;;;;;7.47;4.00;;;;;;;14.41;100.00;96318.19;4472400;32;20092;-80
2023/10/27 08:06:41;;;;;;;6.70;3.80;;;;;;;14.34;100.00;96313.03;4468227;32;20138;-81
2023/10/27 08:09:15;;;;;;;4.72;3.35;;;;;;;14.43;100.00;96303.00;4468823;31;20118;-80
2023/10/27 08:11:45;;;;;;;6.75;3.53;;;;;;;14.48;100.00;96299.69;4472424;32;20491;-82
2023/10/27 08:14:14;;;;;;;4.90;3.12;;;;;;;14.42;100.00;96290.84;4471117;32;20142;-80
2023/10/27 08:16:42;;;;;;;9.30;3.42;;;;;;;14.44;100.00;96286.16;4471697;32;20162;-81
2023/10/27 08:19:10;;;;;;;6.05;3.72;;;;;;;14.43;100.00;96284.56;4470746;32;20084;-82
2023/10/27 08:21:41;;;;;;;7.75;3.33;;;;;;;14.51;100.00;96283.44;4469495;32;21448;-80
2023/10/27 08:24:09;;;;;;;7.62;3.97;;;;;;;14.43;100.00;96275.81;4467386;32;20101;-81
2023/10/27 08:26:37;;;;;;;5.47;3.55;;;;;;;14.43;100.00;96273.19;4468114;32;20447;-80
2023/10/27 08:29:05;;;;;;;12.45;4.15;;;;;;;14.40;100.00;96281.53;4468372;32;20088;-81
2023/10/27 08:31:34;;;;;;;6.03;3.72;;;;;;;14.52;100.00;96277.94;4473230;32;20100;-81
2023/10/27 08:34:04;;;;;;;4.82;3.12;;;;;;;14.66;100.00;96273.31;4468887;32;20089;-78
2023/10/27 08:36:31;;;;;;;11.00;4.70;;;;;;;14.63;100.00;96265.06;4472171;32;20092;-80
2023/10/27 08:39:00;;;;;;;5.65;3.17;;;;;;;14.73;100.00;96258.22;4468729;32;20100;-78
2023/10/27 08:41:30;;;;;;;8.65;3.10;;;;;;;14.75;100.00;96241.34;4470687;32;20116;-80
2023/10/27 08:43:59;;;;;;;6.68;3.60;;;;;;;14.78;100.00;96239.09;4467698;32;20412;-77
2023/10/27 08:46:47;;;;;;;12.10;4.37;;;;;;;14.80;100.00;96231.75;4471742;32;20128;-78
2023/10/27 08:49:15;;;;;;;7.00;3.50;;;;;;;14.93;100.00;96217.56;4473218;32;20108;-79
2023/10/27 08:51:43;;;;;;;7.68;3.62;;;;;;;15.05;100.00;96218.38;4470220;32;20100;-81
2023/10/27 08:54:12;;;;;;;8.27;3.50;;;;;;;14.89;100.00;96216.41;4468527;32;20135;-77
2023/10/27 08:56:40;;;;;;;7.12;3.12;;;;;;;14.89;100.00;96213.78;4470073;32;20096;-79
2023/10/27 08:59:10;;;;;;;7.43;3.22;;;;;;;14.89;100.00;96209.31;4469981;32;20155;-79
2023/10/27 09:01:38;;;;;;;5.43;2.65;;;;;;;14.94;100.00;96202.56;4471317;32;20383;-77
2023/10/27 09:04:13;;;;;;;6.53;3.35;;;;;;;14.87;100.00;96197.41;4471043;31;20458;-77
2023/10/27 09:06:42;;;;;;;10.20;3.00;;;;;;;14.80;100.00;96196.69;4467781;32;20096;-77
2023/10/27 09:09:12;;;;;;;5.57;2.80;;;;;;;15.01;100.00;96187.44;4466662;32;20115;-79
2023/10/27 09:11:44;;;;;;;9.63;2.83;;;;;;;15.00;100.00;96189.25;4467734;32;20139;-79
2023/10/27 09:14:30;;;;;;;8.05;3.15;;;;;;;14.88;100.00;96176.09;4468687;32;20457;-78
2023/10/27 09:17:08;;;;;;;5.72;3.17;;;;;;;14.99;100.00;96177.13;4473327;32;20104;-80
2023/10/27 09:19:35;;;;;;;5.28;3.05;;;;;;;15.21;100.00;96179.16;4473797;31;20111;-79
2023/10/27 09:22:14;;;;;;;4.60;2.55;;;;;;;15.34;100.00;96167.59;4469499;31;20100;-77
2023/10/27 09:24:42;;;;;;;9.10;2.95;;;;;;;15.41;100.00;96163.78;4467411;32;20443;-78
2023/10/27 09:27:09;;;;;;;5.35;2.70;;;;;;;15.58;100.00;96160.44;4470241;32;20097;-80
2023/10/27 09:29:40;;;;;;;4.25;2.22;;;;;;;15.52;100.00;96163.97;4469852;31;20520;-79
2023/10/27 09:32:25;;;;;;;9.68;2.37;;;;;;;15.43;100.00;96155.62;4470671;32;20649;-78
2023/10/27 09:35:22;;;;;;;8.75;2.67;;;;;;;15.66;100.00;96140.78;4471694;32;20149;-77
2023/10/27 09:37:54;;;;;;;4.03;2.03;;;;;;;16.00;100.00;96143.56;4468456;32;20100;-78
2023/10/27 09:40:21;;;;;;;9.77;2.25;;;;;;;16.13;100.00;96143.25;4471291;32;20512;-78
2023/10/27 09:42:51;;;;;;;4.95;2.12;;;;;;;16.14;100.00;96140.38;4473801;32;20105;-76
2023/10/27 09:45:22;;;;;;;7.53;2.00;;;;;;;16.02;100.00;96122.97;4466725;32;20127;-84
2023/10/27 09:47:54;;;;;;;8.15;2.10;;;;;;;16.17;100.00;96138.31;4470285;32;20101;-78
2023/10/27 09:50:25;;;;;;;3.22;2.10;;;;;;;16.26;100.00;96127.13;4470622;32;20136;-78
2023/10/27 09:52:54;;;;;;;7.22;2.17;;;;;;;16.40;100.00;96103.84;4467767;32;20217;-80
2023/10/27 09:55:21;;;;;;;6.87;1.92;;;;;;;16.37;100.00;96108.81;4465022;32;20101;-81
2023/10/27 09:57:49;;;;;;;4.53;2.05;;;;;;;16.24;100.00;96118.62;4467807;32;20156;-80
2023/10/27 10:00:22;;;;;;;6.93;1.92;;;;;;;16.29;100.00;96094.12;4468188;31;20107;-79
2023/10/27 10:02:58;;;;;;;2.97;1.62;;;;;;;16.40;100.00;96095.91;4475035;32;20099;-79
2023/10/27 10:05:26;;;;;;;3.97;1.60;;;;;;;16.40;100.00;96095.91;4483022;32;20095;-82
2023/10/27 10:07:57;;;;;;;4.55;2.00;;;;;;;16.56;100.00;96106.72;4483818;32;20127;-79
2023/10/27 10:10:29;;;;;;;3.80;1.70;;;;;;;16.44;100.00;96086.47;4476214;32;20214;-80
2023/10/27 10:13:05;;;;;;;4.97;1.93;;;;;;;16.51;100.00;96088.94;4471294;31;20453;-81
2023/10/27 10:15:37;;;;;;;3.17;1.20;;;;;;;16.46;100.00;96068.50;4475439;32;20177;-81
2023/10/27 10:18:33;;;;;;;3.58;1.45;;;;;;;16.45;100.00;96076.69;4479523;32;20092;-80
2023/10/27 10:21:02;;;;;;;2.05;1.15;;;;;;;16.46;100.00;96087.00;4476972;32;20092;-81
2023/10/27 10:23:44;;;;;;;3.35;1.37;;;;;;;16.46;100.00;96094.94;4475656;31;20100;-81
2023/10/27 10:26:12;;;;;;;5.03;1.80;;;;;;;16.45;100.00;96082.75;4480102;32;20492;-78
2023/10/27 10:28:47;;;;;;;4.80;1.52;;;;;;;16.44;100.00;96065.31;4481332;32;20138;-82
2023/10/27 10:31:16;;;;;;;2.25;1.10;;;;;;;16.49;100.00;96078.59;4474701;32;20500;-88
2023/10/27 10:33:46;;;;;;;3.95;1.83;;;;;;;16.52;100.00;96081.78;4472405;32;20084;-82
2023/10/27 10:36:22;;;;;;;7.90;1.60;;;;;;;16.45;100.00;96069.53;4472446;32;20154;-86
2023/10/27 10:38:49;;;;;;;5.50;1.25;;;;;;;16.49;100.00;96067.25;4467451;32;20176;-84
2023/10/27 10:41:18;;;;;;;3.47;1.30;;;;;;;16.56;100.00;96056.50;4476229;32;20104;-83
2023/10/27 10:44:12;;;;;;;9.77;1.52;;;;;;;16.54;100.00;96053.31;4481680;32;20153;-83
2023/10/27 10:46:43;;;;;;;5.55;1.33;;;;;;;16.54;100.00;96048.81;4478537;32;20529;-84
2023/10/27 10:49:31;;;;;;;4.12;1.50;;;;;;;16.50;100.00;96047.69;4480873;32;20101;-81
2023/10/27 10:52:01;;;;;;;3.62;1.40;;;;;;;16.52;100.00;96048.25;4476916;31;20365;-82
2023/10/27 10:54:30;;;;;;;6.85;1.70;;;;;;;16.61;100.00;96046.81;4475021;32;20076;-85
2023/10/27 10:57:06;;;;;;;2.67;1.70;;;;;;;16.48;100.00;96020.72;4475387;32;20096;-83
2023/10/27 10:59:36;;;;;;;1.80;1.15;;;;;;;16.44;100.00;96023.03;4476048;31;20130;-83
2023/10/27 11:02:06;;;;;;;2.22;1.50;;;;;;;16.55;100.00;96025.81;4471450;32;20118;-83
2023/10/27 11:04:35;;;;;;;7.50;1.45;;;;;;;16.68;100.00;96015.72;4475718;31;20874;-83
2023/10/27 11:07:05;;;;;;;3.80;1.52;;;;;;;16.61;100.00;96027.50;4477295;32;20111;-83
2023/10/27 11:09:33;;;;;;;5.40;1.92;;;;;;;16.63;100.00;96041.28;4477158;32;20616;-84
2023/10/27 11:12:03;;;;;;;5.43;1.62;;;;;;;16.61;100.00;96038.88;4479781;32;20088;-86
2023/10/27 11:14:40;;;;;;;3.40;1.85;;;;;;;16.54;100.00;96058.59;4478685;31;20731;-82
2023/10/27 11:17:11;;;;;;;3.65;1.85;;;;;;;16.38;100.00;96071.56;4479377;32;20142;-83
2023/10/27 11:19:51;;;;;;;5.78;1.77;;;;;;;16.08;100.00;96093.00;4482885;32;20092;-82
2023/10/27 11:22:23;;;;;;;4.20;1.83;;;;;;;16.07;100.00;96104.59;4477972;32;20157;-83
2023/10/27 11:24:52;;;;;;;2.25;1.52;;;;;;;16.05;100.00;96115.41;4474013;32;20168;-83
2023/10/27 11:27:24;;;;;;;4.90;1.92;;;;;;;15.88;100.00;96125.12;4477360;31;20111;-83
2023/10/27 11:29:59;;;;;;;3.58;1.87;;;;;;;15.92;100.00;96127.03;4474141;31;20105;-83
2023/10/27 11:32:27;;;;;;;4.12;1.67;;;;;;;15.84;100.00;96121.37;4477733;32;20131;-84